Alton, New Hampshire
Current Conditions -  °F | °C
As of 4:55 PM on Sunday 23 Nov 2014 (Local Time) from KLCI Reporting Station
Clear Clear  
Wind Chill:   Ceiling: Unl
Heat Index:   Visibility: 10mi
Dew Point:   Wind: 5mph
Humidity: 81%   Direction: 80°E
Pressure: 30.08"   Gusts: NA
Location:  43.45°N, 71.22°W
Report Text: KLCI 232155Z AUTO 08004KT 10SM CLR 05/02 A3008 RMK AO1
Loading
Personal Weather Stations






























Interactive Weather Map New forecast layout! Learn more

10-Day Weather Forecast

Advertisements
Track Severe Weather on mobile